sensor_id;sensor_type;location;lat;lon;timestamp;P1;durP1;ratioP1;P2;durP2;ratioP2
16837;SDS011;19510;54.486;9.046;2022-08-01T04:44:48;14.02;;;3.35;;
16837;SDS011;19510;54.486;9.046;2022-08-01T04:47:14;17.25;;;3.28;;
16837;SDS011;19510;54.486;9.046;2022-08-01T04:49:40;10.30;;;3.58;;
16837;SDS011;19510;54.486;9.046;2022-08-01T04:52:06;14.38;;;2.85;;
16837;SDS011;19510;54.486;9.046;2022-08-01T04:54:35;14.32;;;3.33;;
16837;SDS011;19510;54.486;9.046;2022-08-01T04:57:04;9.43;;;3.20;;
16837;SDS011;19510;54.486;9.046;2022-08-01T04:59:31;16.45;;;3.25;;
16837;SDS011;19510;54.486;9.046;2022-08-01T05:02:11;16.90;;;2.60;;
16837;SDS011;19510;54.486;9.046;2022-08-01T05:04:40;11.05;;;2.67;;
16837;SDS011;19510;54.486;9.046;2022-08-01T05:07:07;15.43;;;3.03;;
16837;SDS011;19510;54.486;9.046;2022-08-01T05:09:33;17.98;;;3.15;;
16837;SDS011;19510;54.486;9.046;2022-08-01T05:11:59;10.48;;;2.65;;
16837;SDS011;19510;54.486;9.046;2022-08-01T05:14:27;12.65;;;2.92;;
16837;SDS011;19510;54.486;9.046;2022-08-01T05:16:53;11.05;;;2.90;;
16837;SDS011;19510;54.486;9.046;2022-08-01T05:19:19;10.38;;;2.83;;
16837;SDS011;19510;54.486;9.046;2022-08-01T05:21:48;15.25;;;3.22;;
16837;SDS011;19510;54.486;9.046;2022-08-01T05:24:17;14.68;;;3.40;;
16837;SDS011;19510;54.486;9.046;2022-08-01T05:26:42;10.90;;;2.55;;
16837;SDS011;19510;54.486;9.046;2022-08-01T05:29:08;15.52;;;3.20;;
16837;SDS011;19510;54.486;9.046;2022-08-01T05:31:39;12.40;;;3.22;;
16837;SDS011;19510;54.486;9.046;2022-08-01T05:34:05;15.00;;;3.20;;
16837;SDS011;19510;54.486;9.046;2022-08-01T05:36:30;19.13;;;3.25;;
16837;SDS011;19510;54.486;9.046;2022-08-01T05:38:56;14.43;;;2.65;;
16837;SDS011;19510;54.486;9.046;2022-08-01T05:41:22;11.68;;;2.38;;
16837;SDS011;19510;54.486;9.046;2022-08-01T05:43:47;8.18;;;2.45;;
16837;SDS011;19510;54.486;9.046;2022-08-01T05:46:13;19.38;;;2.50;;
16837;SDS011;19510;54.486;9.046;2022-08-01T05:48:39;12.73;;;2.28;;
16837;SDS011;19510;54.486;9.046;2022-08-01T05:51:04;19.95;;;3.10;;
16837;SDS011;19510;54.486;9.046;2022-08-01T05:53:30;14.50;;;3.13;;
16837;SDS011;19510;54.486;9.046;2022-08-01T05:55:59;11.00;;;2.50;;
16837;SDS011;19510;54.486;9.046;2022-08-01T05:58:26;15.15;;;2.40;;
16837;SDS011;19510;54.486;9.046;2022-08-01T06:00:52;14.48;;;2.80;;
16837;SDS011;19510;54.486;9.046;2022-08-01T06:03:18;15.07;;;2.55;;
16837;SDS011;19510;54.486;9.046;2022-08-01T06:05:43;12.35;;;2.90;;
16837;SDS011;19510;54.486;9.046;2022-08-01T06:08:25;10.60;;;2.13;;
16837;SDS011;19510;54.486;9.046;2022-08-01T06:10:51;6.68;;;2.13;;
16837;SDS011;19510;54.486;9.046;2022-08-01T06:13:16;8.40;;;2.22;;
16837;SDS011;19510;54.486;9.046;2022-08-01T06:15:43;8.32;;;2.25;;
16837;SDS011;19510;54.486;9.046;2022-08-01T06:18:09;7.97;;;1.77;;
16837;SDS011;19510;54.486;9.046;2022-08-01T06:20:37;18.52;;;2.20;;
16837;SDS011;19510;54.486;9.046;2022-08-01T06:23:06;8.85;;;1.92;;
16837;SDS011;19510;54.486;9.046;2022-08-01T06:25:34;11.68;;;2.00;;
16837;SDS011;19510;54.486;9.046;2022-08-01T06:28:00;8.95;;;2.17;;
16837;SDS011;19510;54.486;9.046;2022-08-01T06:30:29;14.13;;;2.17;;
16837;SDS011;19510;54.486;9.046;2022-08-01T06:32:55;10.90;;;2.30;;
16837;SDS011;19510;54.486;9.046;2022-08-01T06:35:23;15.40;;;2.80;;
16837;SDS011;19510;54.486;9.046;2022-08-01T06:37:49;17.50;;;2.70;;
16837;SDS011;19510;54.486;9.046;2022-08-01T06:40:14;8.05;;;1.95;;
16837;SDS011;19510;54.486;9.046;2022-08-01T06:42:40;9.75;;;1.98;;
16837;SDS011;19510;54.486;9.046;2022-08-01T06:45:07;14.80;;;2.88;;
16837;SDS011;19510;54.486;9.046;2022-08-01T06:47:34;12.40;;;2.15;;
16837;SDS011;19510;54.486;9.046;2022-08-01T06:50:01;9.63;;;2.17;;
16837;SDS011;19510;54.486;9.046;2022-08-01T06:52:28;17.90;;;2.15;;
16837;SDS011;19510;54.486;9.046;2022-08-01T06:54:53;7.90;;;2.90;;
16837;SDS011;19510;54.486;9.046;2022-08-01T06:57:19;12.13;;;2.72;;
16837;SDS011;19510;54.486;9.046;2022-08-01T06:59:45;12.40;;;2.35;;
16837;SDS011;19510;54.486;9.046;2022-08-01T07:02:14;9.90;;;1.95;;
16837;SDS011;19510;54.486;9.046;2022-08-01T07:04:40;7.47;;;2.05;;
16837;SDS011;19510;54.486;9.046;2022-08-01T07:07:06;7.93;;;1.55;;
16837;SDS011;19510;54.486;9.046;2022-08-01T07:09:35;9.48;;;1.70;;
16837;SDS011;19510;54.486;9.046;2022-08-01T07:12:04;8.15;;;1.70;;
16837;SDS011;19510;54.486;9.046;2022-08-01T07:14:39;9.63;;;1.60;;
16837;SDS011;19510;54.486;9.046;2022-08-01T07:17:39;14.13;;;2.10;;
16837;SDS011;19510;54.486;9.046;2022-08-01T07:20:30;7.43;;;1.90;;
16837;SDS011;19510;54.486;9.046;2022-08-01T07:23:08;7.68;;;1.83;;
16837;SDS011;19510;54.486;9.046;2022-08-01T07:26:19;8.00;;;1.83;;
16837;SDS011;19510;54.486;9.046;2022-08-01T07:29:15;8.32;;;1.88;;
16837;SDS011;19510;54.486;9.046;2022-08-01T07:32:01;10.00;;;2.15;;
16837;SDS011;19510;54.486;9.046;2022-08-01T07:34:27;8.20;;;2.40;;
16837;SDS011;19510;54.486;9.046;2022-08-01T07:36:54;9.27;;;2.97;;
16837;SDS011;19510;54.486;9.046;2022-08-01T07:39:20;11.95;;;1.63;;
16837;SDS011;19510;54.486;9.046;2022-08-01T07:41:50;7.30;;;2.40;;
16837;SDS011;19510;54.486;9.046;2022-08-01T07:44:22;7.90;;;2.25;;
16837;SDS011;19510;54.486;9.046;2022-08-01T07:46:51;6.78;;;1.67;;
16837;SDS011;19510;54.486;9.046;2022-08-01T07:49:17;9.88;;;1.55;;
16837;SDS011;19510;54.486;9.046;2022-08-01T07:55:07;11.60;;;1.88;;
16837;SDS011;19510;54.486;9.046;2022-08-01T07:57:36;10.00;;;1.98;;
16837;SDS011;19510;54.486;9.046;2022-08-01T08:00:03;8.15;;;1.40;;
16837;SDS011;19510;54.486;9.046;2022-08-01T08:02:35;5.90;;;1.20;;
16837;SDS011;19510;54.486;9.046;2022-08-01T08:05:04;8.80;;;1.75;;
16837;SDS011;19510;54.486;9.046;2022-08-01T08:10:59;6.85;;;1.60;;
16837;SDS011;19510;54.486;9.046;2022-08-01T08:13:25;10.43;;;1.88;;
16837;SDS011;19510;54.486;9.046;2022-08-01T08:15:51;5.82;;;1.30;;
16837;SDS011;19510;54.486;9.046;2022-08-01T08:18:17;7.60;;;1.70;;
16837;SDS011;19510;54.486;9.046;2022-08-01T08:20:43;6.20;;;1.77;;
16837;SDS011;19510;54.486;9.046;2022-08-01T08:23:09;7.45;;;1.35;;
16837;SDS011;19510;54.486;9.046;2022-08-01T08:25:56;8.63;;;1.85;;
16837;SDS011;19510;54.486;9.046;2022-08-01T08:28:21;10.20;;;2.15;;
16837;SDS011;19510;54.486;9.046;2022-08-01T08:30:47;7.85;;;1.40;;
16837;SDS011;19510;54.486;9.046;2022-08-01T08:33:13;6.15;;;1.77;;
16837;SDS011;19510;54.486;9.046;2022-08-01T08:35:41;5.32;;;1.67;;
16837;SDS011;19510;54.486;9.046;2022-08-01T08:38:07;11.32;;;1.40;;
16837;SDS011;19510;54.486;9.046;2022-08-01T08:40:32;7.05;;;1.45;;
16837;SDS011;19510;54.486;9.046;2022-08-01T08:43:01;7.97;;;1.88;;
16837;SDS011;19510;54.486;9.046;2022-08-01T08:45:30;7.30;;;1.85;;
16837;SDS011;19510;54.486;9.046;2022-08-01T08:47:56;8.52;;;1.58;;
16837;SDS011;19510;54.486;9.046;2022-08-01T08:50:23;8.85;;;2.05;;
16837;SDS011;19510;54.486;9.046;2022-08-01T08:52:53;8.82;;;1.20;;
16837;SDS011;19510;54.486;9.046;2022-08-01T08:55:20;10.38;;;1.58;;
16837;SDS011;19510;54.486;9.046;2022-08-01T08:57:49;6.03;;;2.00;;
16837;SDS011;19510;54.486;9.046;2022-08-01T09:00:15;5.63;;;0.98;;
16837;SDS011;19510;54.486;9.046;2022-08-01T09:02:42;9.15;;;1.55;;
16837;SDS011;19510;54.486;9.046;2022-08-01T09:05:11;8.07;;;1.90;;
16837;SDS011;19510;54.486;9.046;2022-08-01T09:07:38;8.20;;;1.38;;
16837;SDS011;19510;54.486;9.046;2022-08-01T09:10:04;5.60;;;1.40;;
16837;SDS011;19510;54.486;9.046;2022-08-01T15:37:40;6.15;;;1.30;;
16837;SDS011;19510;54.486;9.046;2022-08-01T16:17:23;5.78;;;1.20;;
16837;SDS011;19510;54.486;9.046;2022-08-01T16:19:49;4.93;;;1.55;;
16837;SDS011;19510;54.486;9.046;2022-08-01T16:22:15;9.73;;;1.45;;
16837;SDS011;19510;54.486;9.046;2022-08-01T16:24:41;4.13;;;0.80;;
16837;SDS011;19510;54.486;9.046;2022-08-01T16:27:06;11.25;;;1.60;;
16837;SDS011;19510;54.486;9.046;2022-08-01T16:29:32;5.07;;;1.05;;
16837;SDS011;19510;54.486;9.046;2022-08-01T16:31:59;8.38;;;1.40;;
16837;SDS011;19510;54.486;9.046;2022-08-01T16:34:26;7.55;;;1.90;;
16837;SDS011;19510;54.486;9.046;2022-08-01T16:36:52;8.73;;;1.48;;
16837;SDS011;19510;54.486;9.046;2022-08-01T16:39:21;5.47;;;1.20;;
16837;SDS011;19510;54.486;9.046;2022-08-01T16:41:47;3.92;;;1.55;;
16837;SDS011;19510;54.486;9.046;2022-08-01T16:44:13;5.53;;;1.23;;
16837;SDS011;19510;54.486;9.046;2022-08-01T16:46:42;9.48;;;1.88;;
16837;SDS011;19510;54.486;9.046;2022-08-01T16:49:08;4.78;;;1.65;;
16837;SDS011;19510;54.486;9.046;2022-08-01T16:51:34;5.50;;;1.42;;
16837;SDS011;19510;54.486;9.046;2022-08-01T16:54:10;6.03;;;1.25;;
16837;SDS011;19510;54.486;9.046;2022-08-01T16:56:48;6.35;;;1.33;;
16837;SDS011;19510;54.486;9.046;2022-08-01T16:59:16;4.53;;;1.40;;
16837;SDS011;19510;54.486;9.046;2022-08-01T17:01:42;11.88;;;1.88;;
16837;SDS011;19510;54.486;9.046;2022-08-01T17:04:08;5.65;;;1.23;;
16837;SDS011;19510;54.486;9.046;2022-08-01T17:06:34;6.72;;;1.17;;
16837;SDS011;19510;54.486;9.046;2022-08-01T17:09:00;5.93;;;1.42;;
16837;SDS011;19510;54.486;9.046;2022-08-01T17:11:26;8.02;;;1.40;;
16837;SDS011;19510;54.486;9.046;2022-08-01T17:13:51;7.22;;;1.60;;
16837;SDS011;19510;54.486;9.046;2022-08-01T17:16:17;8.13;;;1.50;;
16837;SDS011;19510;54.486;9.046;2022-08-01T17:18:43;7.10;;;1.25;;
16837;SDS011;19510;54.486;9.046;2022-08-01T17:21:09;5.35;;;1.05;;
16837;SDS011;19510;54.486;9.046;2022-08-01T17:23:35;3.92;;;1.17;;
16837;SDS011;19510;54.486;9.046;2022-08-01T17:26:01;9.50;;;1.65;;
16837;SDS011;19510;54.486;9.046;2022-08-01T17:28:29;5.13;;;1.88;;
16837;SDS011;19510;54.486;9.046;2022-08-01T17:30:55;6.40;;;1.48;;
16837;SDS011;19510;54.486;9.046;2022-08-01T17:33:21;6.72;;;1.55;;
16837;SDS011;19510;54.486;9.046;2022-08-01T17:35:50;8.93;;;1.35;;
16837;SDS011;19510;54.486;9.046;2022-08-01T17:38:16;4.97;;;1.30;;
16837;SDS011;19510;54.486;9.046;2022-08-01T17:40:43;6.82;;;1.33;;
16837;SDS011;19510;54.486;9.046;2022-08-01T17:43:09;4.10;;;1.10;;
16837;SDS011;19510;54.486;9.046;2022-08-01T17:45:35;8.02;;;1.58;;
16837;SDS011;19510;54.486;9.046;2022-08-01T17:48:01;4.75;;;1.83;;
16837;SDS011;19510;54.486;9.046;2022-08-01T17:50:27;5.70;;;1.20;;
16837;SDS011;19510;54.486;9.046;2022-08-01T17:52:53;6.22;;;1.58;;
16837;SDS011;19510;54.486;9.046;2022-08-01T17:55:19;5.00;;;1.23;;
16837;SDS011;19510;54.486;9.046;2022-08-01T17:57:44;6.50;;;1.52;;
16837;SDS011;19510;54.486;9.046;2022-08-01T18:00:10;8.98;;;1.45;;
16837;SDS011;19510;54.486;9.046;2022-08-01T18:02:36;6.97;;;1.50;;
16837;SDS011;19510;54.486;9.046;2022-08-01T18:05:02;4.97;;;1.48;;
16837;SDS011;19510;54.486;9.046;2022-08-01T18:07:30;9.45;;;1.40;;
16837;SDS011;19510;54.486;9.046;2022-08-01T18:09:56;6.82;;;1.67;;
16837;SDS011;19510;54.486;9.046;2022-08-01T18:12:23;8.75;;;1.40;;
16837;SDS011;19510;54.486;9.046;2022-08-01T18:14:48;11.48;;;1.67;;
16837;SDS011;19510;54.486;9.046;2022-08-01T18:17:17;5.45;;;1.38;;
16837;SDS011;19510;54.486;9.046;2022-08-01T18:19:43;5.50;;;1.23;;
16837;SDS011;19510;54.486;9.046;2022-08-01T18:22:09;7.75;;;1.60;;
16837;SDS011;19510;54.486;9.046;2022-08-01T18:24:36;8.68;;;1.88;;
16837;SDS011;19510;54.486;9.046;2022-08-01T18:27:03;7.10;;;2.33;;
16837;SDS011;19510;54.486;9.046;2022-08-01T18:29:29;6.55;;;1.48;;
16837;SDS011;19510;54.486;9.046;2022-08-01T18:31:54;4.10;;;1.20;;
16837;SDS011;19510;54.486;9.046;2022-08-01T18:34:23;7.13;;;1.50;;
16837;SDS011;19510;54.486;9.046;2022-08-01T18:36:49;5.03;;;1.23;;
16837;SDS011;19510;54.486;9.046;2022-08-01T18:39:14;4.13;;;1.42;;
16837;SDS011;19510;54.486;9.046;2022-08-01T18:41:40;4.75;;;1.30;;
16837;SDS011;19510;54.486;9.046;2022-08-01T18:44:06;3.80;;;1.10;;
16837;SDS011;19510;54.486;9.046;2022-08-01T18:46:31;9.02;;;1.25;;
16837;SDS011;19510;54.486;9.046;2022-08-01T18:48:57;4.30;;;1.10;;
16837;SDS011;19510;54.486;9.046;2022-08-01T18:51:23;3.83;;;1.00;;
16837;SDS011;19510;54.486;9.046;2022-08-01T18:53:50;3.67;;;1.10;;
16837;SDS011;19510;54.486;9.046;2022-08-01T18:56:19;5.25;;;0.93;;
16837;SDS011;19510;54.486;9.046;2022-08-01T18:58:45;8.90;;;1.15;;
16837;SDS011;19510;54.486;9.046;2022-08-01T19:01:10;3.85;;;1.10;;
16837;SDS011;19510;54.486;9.046;2022-08-01T19:03:37;6.88;;;1.10;;
16837;SDS011;19510;54.486;9.046;2022-08-01T19:06:04;4.90;;;1.60;;
16837;SDS011;19510;54.486;9.046;2022-08-01T19:08:30;9.95;;;1.30;;
16837;SDS011;19510;54.486;9.046;2022-08-01T19:10:58;5.60;;;1.05;;
16837;SDS011;19510;54.486;9.046;2022-08-01T19:13:26;7.15;;;1.50;;
16837;SDS011;19510;54.486;9.046;2022-08-01T19:15:53;6.80;;;1.20;;
16837;SDS011;19510;54.486;9.046;2022-08-01T19:18:19;8.65;;;1.00;;
16837;SDS011;19510;54.486;9.046;2022-08-01T19:20:49;8.38;;;1.45;;
16837;SDS011;19510;54.486;9.046;2022-08-01T19:23:17;7.93;;;1.58;;
16837;SDS011;19510;54.486;9.046;2022-08-01T19:26:04;5.65;;;1.30;;
16837;SDS011;19510;54.486;9.046;2022-08-01T19:28:38;5.00;;;1.05;;
16837;SDS011;19510;54.486;9.046;2022-08-01T19:31:14;2.75;;;1.55;;
16837;SDS011;19510;54.486;9.046;2022-08-01T19:33:40;4.85;;;1.45;;
16837;SDS011;19510;54.486;9.046;2022-08-01T19:36:13;6.88;;;1.52;;
16837;SDS011;19510;54.486;9.046;2022-08-01T19:38:43;3.67;;;1.15;;
16837;SDS011;19510;54.486;9.046;2022-08-01T19:41:09;7.05;;;1.60;;
16837;SDS011;19510;54.486;9.046;2022-08-01T19:43:39;5.25;;;1.50;;
16837;SDS011;19510;54.486;9.046;2022-08-01T19:46:05;6.07;;;1.20;;
16837;SDS011;19510;54.486;9.046;2022-08-01T19:48:35;4.72;;;1.75;;
16837;SDS011;19510;54.486;9.046;2022-08-01T19:51:03;4.38;;;1.35;;
16837;SDS011;19510;54.486;9.046;2022-08-01T19:53:37;5.65;;;1.27;;
16837;SDS011;19510;54.486;9.046;2022-08-01T19:56:08;4.88;;;1.15;;
16837;SDS011;19510;54.486;9.046;2022-08-01T19:58:38;6.22;;;1.38;;
16837;SDS011;19510;54.486;9.046;2022-08-01T20:01:07;8.48;;;1.40;;
16837;SDS011;19510;54.486;9.046;2022-08-01T20:03:35;14.25;;;1.60;;
16837;SDS011;19510;54.486;9.046;2022-08-01T20:06:03;8.82;;;1.33;;
16837;SDS011;19510;54.486;9.046;2022-08-01T20:08:30;4.47;;;1.08;;
16837;SDS011;19510;54.486;9.046;2022-08-01T20:10:58;6.70;;;1.38;;
16837;SDS011;19510;54.486;9.046;2022-08-01T20:13:25;9.35;;;1.85;;
16837;SDS011;19510;54.486;9.046;2022-08-01T20:15:51;6.75;;;1.30;;
16837;SDS011;19510;54.486;9.046;2022-08-01T20:18:18;4.00;;;1.20;;
16837;SDS011;19510;54.486;9.046;2022-08-01T20:20:45;5.20;;;1.45;;
16837;SDS011;19510;54.486;9.046;2022-08-01T20:23:12;8.10;;;1.23;;
16837;SDS011;19510;54.486;9.046;2022-08-01T20:25:40;4.15;;;1.00;;
16837;SDS011;19510;54.486;9.046;2022-08-01T20:28:09;4.47;;;1.65;;
16837;SDS011;19510;54.486;9.046;2022-08-01T20:30:36;7.07;;;1.75;;
16837;SDS011;19510;54.486;9.046;2022-08-01T20:33:04;10.02;;;1.80;;
16837;SDS011;19510;54.486;9.046;2022-08-01T20:35:31;3.85;;;1.08;;
16837;SDS011;19510;54.486;9.046;2022-08-01T20:37:58;6.38;;;1.42;;
16837;SDS011;19510;54.486;9.046;2022-08-01T20:40:26;9.82;;;1.48;;
16837;SDS011;19510;54.486;9.046;2022-08-01T20:42:52;9.70;;;1.48;;
16837;SDS011;19510;54.486;9.046;2022-08-01T20:45:19;7.45;;;1.38;;
16837;SDS011;19510;54.486;9.046;2022-08-01T20:47:47;2.88;;;1.33;;
16837;SDS011;19510;54.486;9.046;2022-08-01T20:50:19;3.25;;;1.30;;
16837;SDS011;19510;54.486;9.046;2022-08-01T20:53:04;9.13;;;1.60;;
16837;SDS011;19510;54.486;9.046;2022-08-01T20:55:32;4.47;;;1.02;;
16837;SDS011;19510;54.486;9.046;2022-08-01T20:58:10;4.75;;;1.25;;
16837;SDS011;19510;54.486;9.046;2022-08-01T21:00:39;6.00;;;1.33;;
16837;SDS011;19510;54.486;9.046;2022-08-01T21:03:15;9.40;;;1.30;;
16837;SDS011;19510;54.486;9.046;2022-08-01T21:05:47;4.82;;;1.38;;
16837;SDS011;19510;54.486;9.046;2022-08-01T21:08:29;7.80;;;1.98;;
16837;SDS011;19510;54.486;9.046;2022-08-01T21:11:15;6.03;;;1.73;;
16837;SDS011;19510;54.486;9.046;2022-08-01T21:13:47;11.93;;;1.77;;
16837;SDS011;19510;54.486;9.046;2022-08-01T21:16:15;6.20;;;1.45;;
